Terminal Aerodrome Forecast
Issued by NWS

Home | Current Version | Previous Version | Text Only | Print | Product List | Glossary On
Versions: 1 2 3 4 5 6 7 8 9 10 11 12 13 14 15 16 17 18 19 20 21 22 23 24 25 26 27 28 29 30 31 32
000
FTUS42 KRAH 260540
TAFINT
TAF
KINT 260540Z 2606/2706 33004KT P6SM FEW070
     FM262200 14003KT P6SM VCSH BKN050 BKN200
      TEMPO 2701/2703 BKN018 OVC050
     FM270300 01003KT 3SM SHRA BR BKN007 OVC015=

USA.gov is the U.S. government's official web portal to all federal, state and local government web resources and services.